createdAt,value
2022-10-22T00:00:01.323Z,55.90
2022-10-22T00:01:33.476Z,57.17
2022-10-22T00:03:06.598Z,56.37
2022-10-22T00:04:41.089Z,56.83
2022-10-22T00:06:13.146Z,57.40
2022-10-22T00:07:46.203Z,59.70
2022-10-22T00:09:18.552Z,59.33
2022-10-22T00:10:52.764Z,56.73
2022-10-22T00:12:25.839Z,55.10
2022-10-22T00:13:59.108Z,59.50
2022-10-22T00:15:32.193Z,56.50
2022-10-22T00:17:07.040Z,58.00
2022-10-22T00:18:43.387Z,56.60
2022-10-22T00:20:17.838Z,62.37
2022-10-22T00:21:50.881Z,60.17
2022-10-22T00:23:23.967Z,60.77
2022-10-22T00:24:57.088Z,61.70
2022-10-22T00:26:30.095Z,59.47
2022-10-22T00:28:02.231Z,62.87
2022-10-22T00:29:35.256Z,62.17
2022-10-22T00:31:08.646Z,60.47
2022-10-22T00:32:40.795Z,63.10
2022-10-22T00:34:14.081Z,59.27
2022-10-22T00:35:47.648Z,59.30
2022-10-22T00:37:20.677Z,61.93
2022-10-22T00:38:52.718Z,60.80
2022-10-22T00:40:26.269Z,58.77
2022-10-22T00:41:59.855Z,62.30
2022-10-22T00:43:32.939Z,60.30
2022-10-22T00:45:14.643Z,62.80
2022-10-22T00:46:47.668Z,55.77
2022-10-22T00:48:24.165Z,56.87
2022-10-22T00:49:57.292Z,60.67
2022-10-22T00:51:35.012Z,54.90
2022-10-22T00:53:14.108Z,57.70
2022-10-22T00:54:46.243Z,58.57
2022-10-22T00:56:20.078Z,59.93
2022-10-22T00:57:54.121Z,62.97
2022-10-22T00:59:27.194Z,60.37
2022-10-22T01:01:00.534Z,60.13
2022-10-22T01:02:32.667Z,61.30
2022-10-22T01:04:05.886Z,59.20
2022-10-22T01:05:44.083Z,60.07
2022-10-22T01:07:20.191Z,54.67
2022-10-22T01:09:03.863Z,59.83
2022-10-22T01:10:51.687Z,56.90
2022-10-22T01:12:33.170Z,58.47
2022-10-22T01:14:17.559Z,61.50
2022-10-22T01:15:57.224Z,58.67
2022-10-22T01:17:35.158Z,55.27
2022-10-22T01:19:30.326Z,55.90
2022-10-22T01:21:11.685Z,60.17
2022-10-22T01:22:59.229Z,59.00
2022-10-22T01:24:41.606Z,62.13
2022-10-22T01:28:06.958Z,61.83
2022-10-22T01:29:45.675Z,60.37
2022-10-22T01:31:22.733Z,60.07
2022-10-22T01:33:01.439Z,58.90
2022-10-22T01:34:34.767Z,58.20
2022-10-22T01:36:09.333Z,56.97
2022-10-22T01:37:47.165Z,60.17
2022-10-22T01:39:20.543Z,59.63
2022-10-22T01:40:53.897Z,57.20
2022-10-22T01:42:26.976Z,60.13
2022-10-22T01:44:00.214Z,58.57
2022-10-22T01:45:37.365Z,60.23
2022-10-22T01:47:22.284Z,61.10
2022-10-22T01:49:13.644Z,60.10
2022-10-22T01:51:14.721Z,57.70
2022-10-22T01:53:08.074Z,59.17
2022-10-22T01:54:46.568Z,57.67
2022-10-22T01:56:31.314Z,58.13
2022-10-22T01:58:13.919Z,59.37
2022-10-22T01:59:54.476Z,58.47
2022-10-22T02:01:36.578Z,59.60
2022-10-22T02:03:16.553Z,62.07
2022-10-22T02:04:56.266Z,58.50
2022-10-22T02:06:32.144Z,57.70
2022-10-22T02:08:10.042Z,56.83
2022-10-22T02:09:44.782Z,55.97
2022-10-22T02:11:18.289Z,55.00
2022-10-22T02:12:54.971Z,57.67
2022-10-22T02:14:30.425Z,57.23
2022-10-22T02:16:04.464Z,52.57
2022-10-22T02:17:40.699Z,56.03
2022-10-22T02:19:17.633Z,55.53
2022-10-22T02:20:51.547Z,57.70
2022-10-22T02:22:26.126Z,56.53
2022-10-22T02:23:59.488Z,56.97
2022-10-22T02:25:35.035Z,56.13
2022-10-22T02:27:15.088Z,49.80
2022-10-22T02:28:57.792Z,54.17
2022-10-22T02:30:32.484Z,53.40
2022-10-22T02:32:08.299Z,53.90
2022-10-22T02:33:47.661Z,50.70
2022-10-22T02:35:24.162Z,53.67
2022-10-22T02:36:59.119Z,55.23
2022-10-22T02:38:33.840Z,54.37
2022-10-22T02:40:07.797Z,50.67
2022-10-22T02:41:41.215Z,48.93
2022-10-22T02:43:13.266Z,50.50
2022-10-22T02:44:46.479Z,59.07
2022-10-22T02:46:18.577Z,55.60
2022-10-22T02:47:51.825Z,53.43
2022-10-22T02:49:25.229Z,52.77
2022-10-22T02:50:58.285Z,53.50
2022-10-22T02:52:31.317Z,52.20
2022-10-22T02:54:04.545Z,52.13
2022-10-22T02:55:37.619Z,54.87
2022-10-22T02:57:10.807Z,52.50
2022-10-22T02:58:43.928Z,55.03
2022-10-22T03:00:17.562Z,55.13
2022-10-22T03:01:49.630Z,53.83
2022-10-22T03:03:22.710Z,53.87
2022-10-22T03:04:57.122Z,56.47
2022-10-22T03:06:30.205Z,52.50
2022-10-22T03:08:03.240Z,56.27
2022-10-22T03:09:36.352Z,52.93
2022-10-22T03:11:08.452Z,53.10
2022-10-22T03:12:41.508Z,56.27
2022-10-22T03:14:14.728Z,53.87
2022-10-22T03:15:50.017Z,52.90
2022-10-22T03:17:22.176Z,51.47
2022-10-22T03:18:55.203Z,52.63
2022-10-22T03:20:28.762Z,54.87
2022-10-22T03:22:03.583Z,56.30
2022-10-22T03:23:38.157Z,56.47
2022-10-22T03:25:15.253Z,58.50
2022-10-22T03:26:50.010Z,55.13
2022-10-22T03:28:23.099Z,58.77
2022-10-22T03:29:57.821Z,58.17
2022-10-22T03:31:30.859Z,62.37
2022-10-22T03:33:03.967Z,57.13
2022-10-22T03:34:37.190Z,60.83
2022-10-22T03:36:11.968Z,58.93
2022-10-22T03:37:45.121Z,60.53
2022-10-22T03:39:20.201Z,59.20
2022-10-22T03:40:52.745Z,61.07
2022-10-22T03:42:26.487Z,57.20
2022-10-22T03:44:01.987Z,59.97
2022-10-22T03:45:34.119Z,61.63
2022-10-22T03:47:07.259Z,61.83
2022-10-22T03:48:40.339Z,57.43
2022-10-22T03:50:13.395Z,57.70
2022-10-22T03:51:47.882Z,59.63
2022-10-22T03:53:21.031Z,59.73
2022-10-22T03:54:54.098Z,58.67
2022-10-22T03:56:27.177Z,60.43
2022-10-22T03:58:00.213Z,54.80
2022-10-22T03:59:36.749Z,61.97
2022-10-22T04:01:14.108Z,59.03
2022-10-22T04:02:47.262Z,56.07
2022-10-22T04:04:20.427Z,59.57
2022-10-22T04:05:53.452Z,55.97
2022-10-22T04:07:27.978Z,56.43
2022-10-22T04:09:02.305Z,59.30
2022-10-22T04:10:35.557Z,55.33
2022-10-22T04:12:09.539Z,58.70
2022-10-22T04:13:42.624Z,54.30
2022-10-22T04:15:15.800Z,54.60
2022-10-22T04:16:47.839Z,54.20
2022-10-22T04:18:21.748Z,51.50
2022-10-22T04:19:54.792Z,51.40
2022-10-22T04:21:27.837Z,54.90
2022-10-22T04:23:02.250Z,52.77
2022-10-22T04:24:35.361Z,53.57
2022-10-22T04:26:09.236Z,54.13
2022-10-22T04:27:41.511Z,52.33
2022-10-22T04:29:16.228Z,50.80
2022-10-22T04:30:49.586Z,53.67
2022-10-22T04:32:21.793Z,52.83
2022-10-22T04:33:55.525Z,54.20
2022-10-22T04:35:28.856Z,51.93
2022-10-22T04:37:00.910Z,50.53
2022-10-22T04:38:35.564Z,50.83
2022-10-22T04:40:09.990Z,50.57
2022-10-22T04:41:43.146Z,49.33
2022-10-22T04:43:16.179Z,53.33
2022-10-22T04:44:49.242Z,52.00
2022-10-22T04:46:22.376Z,50.83
2022-10-22T04:47:55.415Z,52.77
2022-10-22T04:49:28.616Z,49.23
2022-10-22T04:51:01.661Z,49.93
2022-10-22T04:52:34.697Z,50.70
2022-10-22T04:54:09.131Z,53.23
2022-10-22T04:55:41.197Z,49.83
2022-10-22T04:57:14.930Z,48.53
2022-10-22T04:58:47.531Z,53.97
2022-10-22T05:00:20.803Z,51.10
2022-10-22T05:01:53.868Z,47.97
2022-10-22T05:03:27.075Z,48.20
2022-10-22T05:05:00.314Z,44.13
2022-10-22T05:06:34.489Z,51.60
2022-10-22T05:08:07.512Z,49.10
2022-10-22T05:09:41.961Z,52.43
2022-10-22T05:11:15.799Z,52.07
2022-10-22T05:12:48.928Z,50.20
2022-10-22T05:14:24.158Z,48.07
2022-10-22T05:15:56.270Z,54.43
2022-10-22T05:17:29.423Z,49.53
2022-10-22T05:19:02.769Z,47.97
2022-10-22T05:20:35.938Z,49.17
2022-10-22T05:22:08.979Z,49.00
2022-10-22T05:23:42.224Z,51.30
2022-10-22T05:25:16.769Z,47.03
2022-10-22T05:26:51.285Z,48.80
2022-10-22T05:28:24.446Z,53.00
2022-10-22T05:29:56.490Z,46.83
2022-10-22T05:31:29.818Z,53.27
2022-10-22T05:33:01.878Z,47.37
2022-10-22T05:34:36.144Z,49.83
2022-10-22T05:36:12.258Z,49.27
2022-10-22T05:37:45.440Z,47.53
2022-10-22T05:39:18.512Z,44.93
2022-10-22T05:41:02.609Z,46.37
2022-10-22T05:42:35.655Z,46.53
2022-10-22T05:44:07.803Z,44.00
2022-10-22T05:45:43.287Z,50.90
2022-10-22T05:47:16.355Z,45.33
2022-10-22T05:48:49.810Z,48.63
2022-10-22T05:50:22.866Z,47.67
2022-10-22T05:51:55.926Z,50.17
2022-10-22T05:53:27.995Z,49.40
2022-10-22T05:55:01.157Z,53.23
2022-10-22T05:56:37.591Z,45.27
2022-10-22T05:58:10.619Z,47.47
2022-10-22T05:59:43.670Z,47.77
2022-10-22T06:01:19.319Z,46.87
2022-10-22T06:02:52.914Z,44.03
2022-10-22T06:04:25.941Z,45.97
2022-10-22T06:06:00.242Z,45.97
2022-10-22T06:07:33.468Z,42.23
2022-10-22T06:09:12.095Z,44.07
2022-10-22T06:10:44.440Z,45.10
2022-10-22T06:12:18.818Z,46.13
2022-10-22T06:13:52.870Z,41.17
2022-10-22T06:15:25.986Z,44.40
2022-10-22T06:17:01.256Z,42.57
2022-10-22T06:18:34.518Z,42.23
2022-10-22T06:20:08.897Z,43.17
2022-10-22T06:21:42.150Z,43.27
2022-10-22T06:23:15.694Z,44.53
2022-10-22T06:24:48.776Z,43.27
2022-10-22T06:26:21.853Z,47.00
2022-10-22T06:27:56.260Z,43.30
2022-10-22T06:29:29.476Z,45.97
2022-10-22T06:31:03.755Z,47.27
2022-10-22T06:32:36.829Z,49.90
2022-10-22T06:34:12.579Z,50.70
2022-10-22T06:35:46.037Z,46.03
2022-10-22T06:37:19.143Z,51.33
2022-10-22T06:38:53.446Z,48.20
2022-10-22T06:40:26.635Z,47.20
2022-10-22T06:41:59.705Z,48.53
2022-10-22T06:43:36.494Z,49.53
2022-10-22T06:45:11.124Z,51.07
2022-10-22T06:46:43.649Z,44.80
2022-10-22T06:48:16.824Z,51.50
2022-10-22T06:49:50.313Z,51.80
2022-10-22T06:51:22.840Z,48.33
2022-10-22T06:52:55.980Z,51.87
2022-10-22T06:54:29.049Z,51.87
2022-10-22T06:56:06.688Z,48.63
2022-10-22T06:57:40.060Z,55.20
2022-10-22T06:59:14.833Z,52.23
2022-10-22T07:00:47.977Z,50.03
2022-10-22T07:02:21.416Z,51.17
2022-10-22T07:03:55.389Z,49.80
2022-10-22T07:05:28.437Z,50.80
2022-10-22T07:07:01.468Z,49.43
2022-10-22T07:08:35.425Z,53.93
2022-10-22T07:10:10.210Z,53.47
2022-10-22T07:11:44.821Z,50.27
2022-10-22T07:13:16.885Z,52.80
2022-10-22T07:14:51.768Z,51.70
2022-10-22T07:16:29.512Z,51.20
2022-10-22T07:18:05.450Z,52.40
2022-10-22T07:19:38.499Z,54.30
2022-10-22T07:21:11.903Z,54.73
2022-10-22T07:22:44.928Z,51.43
2022-10-22T07:24:17.981Z,51.77
2022-10-22T07:25:50.077Z,50.87
2022-10-22T07:27:23.191Z,51.67
2022-10-22T07:28:56.243Z,52.53
2022-10-22T07:30:30.674Z,47.50
2022-10-22T07:32:03.782Z,45.47
2022-10-22T07:33:37.078Z,50.87
2022-10-22T07:35:10.548Z,50.33
2022-10-22T07:36:43.828Z,49.43
2022-10-22T07:38:16.859Z,50.77
2022-10-22T07:39:50.214Z,48.03
2022-10-22T07:41:23.660Z,55.37
2022-10-22T07:42:56.762Z,55.43
2022-10-22T07:44:29.979Z,54.60
2022-10-22T07:46:04.431Z,52.07
2022-10-22T07:47:37.883Z,51.77
2022-10-22T07:49:11.093Z,48.37
2022-10-22T07:52:17.267Z,51.77
2022-10-22T07:53:50.309Z,53.53
2022-10-22T07:55:23.390Z,46.87
2022-10-22T07:56:56.469Z,50.33
2022-10-22T07:58:29.570Z,47.33
2022-10-22T08:00:02.588Z,44.77
2022-10-22T08:01:46.958Z,46.10
2022-10-22T08:03:20.243Z,45.40
2022-10-22T08:04:53.504Z,48.40
2022-10-22T08:06:26.825Z,46.40
2022-10-22T08:08:00.599Z,47.73
2022-10-22T08:09:33.886Z,49.93
2022-10-22T08:11:07.371Z,47.63
2022-10-22T08:12:40.906Z,48.53
2022-10-22T08:14:14.300Z,47.63
2022-10-22T08:15:49.009Z,49.27
2022-10-22T08:17:24.977Z,50.17
2022-10-22T08:18:58.039Z,50.60
2022-10-22T08:20:30.228Z,47.83
2022-10-22T08:22:03.579Z,44.13
2022-10-22T08:23:36.673Z,46.27
2022-10-22T08:25:10.600Z,47.93
2022-10-22T08:26:43.922Z,40.23
2022-10-22T08:28:19.880Z,43.73
2022-10-22T08:29:55.030Z,40.17
2022-10-22T08:31:28.318Z,44.37
2022-10-22T08:33:03.162Z,43.37
2022-10-22T08:34:36.246Z,42.47
2022-10-22T08:36:10.003Z,42.57
2022-10-22T08:37:42.314Z,43.20
2022-10-22T08:39:15.753Z,39.33
2022-10-22T08:40:52.422Z,40.47
2022-10-22T08:42:50.156Z,39.60
2022-10-22T08:44:52.049Z,38.63
2022-10-22T08:46:48.474Z,37.43
2022-10-22T08:48:41.028Z,39.47
2022-10-22T08:50:18.990Z,40.83
2022-10-22T08:51:52.908Z,39.50
2022-10-22T08:53:34.158Z,39.57
2022-10-22T08:55:13.796Z,40.97
2022-10-22T08:56:55.962Z,37.70
2022-10-22T08:58:36.942Z,37.70
2022-10-22T09:00:15.209Z,38.60
2022-10-22T09:01:52.623Z,39.00
2022-10-22T09:03:36.139Z,35.77
2022-10-22T09:05:23.217Z,36.37
2022-10-22T09:06:58.564Z,37.27
2022-10-22T09:08:31.740Z,36.60
2022-10-22T09:10:05.382Z,38.30
2022-10-22T09:11:41.049Z,39.10
2022-10-22T09:13:18.887Z,35.47
2022-10-22T09:14:52.258Z,32.27
2022-10-22T09:16:35.042Z,33.73
2022-10-22T09:18:23.038Z,34.97
2022-10-22T09:20:07.836Z,31.50
2022-10-22T09:21:52.005Z,31.87
2022-10-22T09:23:36.408Z,30.13
2022-10-22T09:25:19.747Z,29.83
2022-10-22T09:26:52.842Z,32.50
2022-10-22T09:28:25.910Z,29.40
2022-10-22T09:29:59.022Z,26.53
2022-10-22T09:31:34.215Z,27.70
2022-10-22T09:33:20.168Z,28.80
2022-10-22T09:34:59.190Z,25.17
2022-10-22T09:36:32.607Z,24.93
2022-10-22T09:38:09.700Z,20.90
2022-10-22T09:39:46.370Z,19.87
2022-10-22T09:41:21.911Z,20.80
2022-10-22T09:42:55.317Z,22.43
2022-10-22T09:44:28.391Z,22.10
2022-10-22T09:46:03.443Z,18.80
2022-10-22T09:47:43.385Z,21.93
2022-10-22T09:49:24.809Z,16.23
2022-10-22T09:51:05.773Z,17.30
2022-10-22T09:52:41.679Z,17.50
2022-10-22T09:54:18.056Z,15.80
2022-10-22T09:55:53.638Z,14.73
2022-10-22T09:57:29.621Z,15.03
2022-10-22T09:59:02.938Z,13.60
2022-10-22T10:00:36.025Z,15.43
2022-10-22T10:02:20.138Z,15.07
2022-10-22T10:04:09.444Z,14.93
2022-10-22T10:05:44.046Z,14.93
2022-10-22T10:07:20.205Z,17.03
2022-10-22T10:08:53.565Z,17.23
2022-10-22T10:10:36.119Z,15.03
2022-10-22T10:12:34.538Z,15.60
2022-10-22T10:14:15.982Z,15.10
2022-10-22T10:15:56.071Z,14.47
2022-10-22T10:17:37.485Z,14.60
2022-10-22T10:19:37.700Z,14.37
2022-10-22T10:21:19.795Z,14.83
2022-10-22T10:23:03.643Z,14.83
2022-10-22T10:24:50.384Z,13.53
2022-10-22T10:26:31.575Z,13.50
2022-10-22T10:28:18.662Z,13.53
2022-10-22T10:29:56.549Z,12.77
2022-10-22T10:31:42.319Z,12.37
2022-10-22T10:33:25.204Z,11.90
2022-10-22T10:35:08.100Z,12.20
2022-10-22T10:36:51.940Z,12.77
2022-10-22T10:38:48.882Z,12.50
2022-10-22T10:40:29.530Z,11.93
2022-10-22T10:42:11.893Z,12.13
2022-10-22T10:44:00.055Z,12.63
2022-10-22T10:45:43.447Z,11.57
2022-10-22T10:47:34.664Z,11.80
2022-10-22T10:49:11.838Z,11.10
2022-10-22T10:50:58.778Z,10.30
2022-10-22T10:52:39.697Z,9.80
2022-10-22T10:54:25.811Z,8.80
2022-10-22T10:56:05.801Z,9.90
2022-10-22T10:57:47.862Z,11.17
2022-10-22T10:59:36.413Z,11.00
2022-10-22T11:01:19.551Z,8.43
2022-10-22T11:03:32.400Z,8.90
2022-10-22T11:05:29.298Z,8.60
2022-10-22T11:07:11.648Z,9.23
2022-10-22T11:08:57.492Z,9.20
2022-10-22T11:10:37.727Z,8.97
2022-10-22T11:12:16.125Z,9.33
2022-10-22T11:13:53.877Z,9.37
2022-10-22T11:15:30.903Z,8.83
2022-10-22T11:17:07.567Z,8.73
2022-10-22T11:18:44.565Z,8.70
2022-10-22T11:20:23.617Z,9.17
2022-10-22T11:22:05.143Z,8.03
2022-10-22T11:23:42.300Z,8.00
2022-10-22T11:25:19.522Z,8.53
2022-10-22T11:26:57.817Z,8.53
2022-10-22T11:28:35.157Z,9.33
2022-10-22T11:30:14.800Z,9.60
2022-10-22T11:31:48.938Z,9.07
2022-10-22T11:33:27.819Z,9.17
2022-10-22T11:35:04.702Z,10.50
2022-10-22T11:36:39.131Z,10.50
2022-10-22T11:38:16.093Z,9.03
2022-10-22T11:39:52.166Z,9.10
2022-10-22T11:41:27.629Z,8.83
2022-10-22T11:43:06.818Z,10.37
2022-10-22T11:44:59.707Z,11.77
2022-10-22T11:46:44.313Z,9.93
2022-10-22T11:48:19.267Z,11.90
2022-10-22T11:50:03.312Z,10.67
2022-10-22T11:51:38.879Z,11.37
2022-10-22T11:53:20.917Z,11.77
2022-10-22T11:54:58.866Z,10.60
2022-10-22T11:56:39.427Z,10.03
2022-10-22T11:58:30.644Z,10.53
2022-10-22T12:00:10.666Z,11.43
2022-10-22T12:01:49.447Z,11.33
2022-10-22T12:03:40.286Z,10.57
2022-10-22T12:05:37.302Z,11.93
2022-10-22T12:07:32.878Z,11.33
2022-10-22T12:09:08.708Z,10.13
2022-10-22T12:10:56.626Z,9.63
2022-10-22T12:12:36.886Z,9.50
2022-10-22T12:14:20.696Z,9.50
2022-10-22T12:15:55.806Z,10.33
2022-10-22T12:17:29.881Z,10.17
2022-10-22T12:19:06.752Z,10.60
2022-10-22T12:20:39.844Z,11.87
2022-10-22T12:22:17.848Z,18.97
2022-10-22T12:23:52.722Z,12.20
2022-10-22T12:25:35.430Z,11.63
2022-10-22T12:27:22.372Z,11.57
2022-10-22T12:29:00.002Z,12.83
2022-10-22T12:30:35.616Z,12.07
2022-10-22T12:32:08.666Z,12.10
2022-10-22T12:33:41.759Z,11.63
2022-10-22T12:35:17.520Z,11.47
2022-10-22T12:36:52.181Z,11.77
2022-10-22T12:38:26.536Z,11.80
2022-10-22T12:39:59.556Z,11.20
2022-10-22T12:41:33.282Z,11.30
2022-10-22T12:43:13.344Z,11.53
2022-10-22T12:44:46.464Z,11.10
2022-10-22T12:46:20.940Z,11.40
2022-10-22T12:47:57.994Z,11.53
2022-10-22T12:49:43.791Z,11.27
2022-10-22T12:51:20.852Z,11.17
2022-10-22T12:52:56.096Z,9.90
2022-10-22T12:54:31.617Z,10.83
2022-10-22T12:56:07.168Z,11.03
2022-10-22T12:57:40.208Z,13.33
2022-10-22T12:59:19.278Z,11.33
2022-10-22T13:00:57.383Z,10.30
2022-10-22T13:02:32.020Z,9.63
2022-10-22T13:04:07.858Z,11.30
2022-10-22T13:05:41.017Z,9.20
2022-10-22T13:07:22.267Z,9.80
2022-10-22T13:09:07.798Z,9.70
2022-10-22T13:10:42.649Z,9.53
2022-10-22T13:12:16.694Z,9.70
2022-10-22T13:13:49.801Z,9.40
2022-10-22T13:15:35.759Z,11.10
2022-10-22T13:17:12.001Z,10.80
2022-10-22T13:18:48.208Z,8.57
2022-10-22T13:20:23.371Z,8.93
2022-10-22T13:21:56.624Z,11.03
2022-10-22T13:23:31.561Z,10.63
2022-10-22T13:25:23.440Z,10.30
2022-10-22T13:26:56.790Z,9.93
2022-10-22T13:28:30.503Z,10.40
2022-10-22T13:30:10.569Z,12.03
2022-10-22T13:31:47.994Z,10.60
2022-10-22T13:33:26.204Z,9.63
2022-10-22T13:35:04.575Z,10.53
2022-10-22T13:36:37.952Z,10.10
2022-10-22T13:38:18.308Z,9.53
2022-10-22T13:39:51.368Z,9.50
2022-10-22T13:41:26.423Z,9.50
2022-10-22T13:42:59.539Z,13.00
2022-10-22T13:44:32.621Z,11.27
2022-10-22T13:46:09.971Z,10.87
2022-10-22T13:47:45.850Z,11.43
2022-10-22T13:49:22.493Z,11.13
2022-10-22T13:50:56.968Z,12.17
2022-10-22T13:52:34.305Z,11.50
2022-10-22T13:54:14.708Z,11.00
2022-10-22T13:55:47.869Z,10.30
2022-10-22T13:57:20.922Z,12.63
2022-10-22T13:58:53.991Z,10.87
2022-10-22T14:00:27.324Z,10.73
2022-10-22T14:02:05.841Z,10.40
2022-10-22T14:03:39.221Z,11.40
2022-10-22T14:05:13.037Z,11.03
2022-10-22T14:06:47.522Z,10.97
2022-10-22T14:08:22.851Z,12.47
2022-10-22T14:09:55.918Z,10.80
2022-10-22T14:11:31.123Z,11.00
2022-10-22T14:13:04.412Z,10.43
2022-10-22T14:14:38.300Z,11.07
2022-10-22T14:16:19.754Z,12.07
2022-10-22T14:17:57.235Z,12.17
2022-10-22T14:19:31.593Z,10.80
2022-10-22T14:21:07.468Z,10.77
2022-10-22T14:22:41.915Z,11.93
2022-10-22T14:24:15.012Z,11.80
2022-10-22T14:25:48.408Z,11.23
2022-10-22T14:27:21.461Z,11.43
2022-10-22T14:29:11.430Z,12.30
2022-10-22T14:30:45.522Z,11.17
2022-10-22T14:32:20.417Z,12.50
2022-10-22T14:33:53.771Z,14.93
2022-10-22T14:35:26.875Z,12.40
2022-10-22T14:36:59.976Z,11.53
2022-10-22T14:38:34.470Z,11.90
2022-10-22T14:40:09.195Z,11.63
2022-10-22T14:41:43.348Z,11.53
2022-10-22T14:43:24.602Z,13.23
2022-10-22T14:44:57.689Z,11.83
2022-10-22T14:46:30.889Z,12.73
2022-10-22T14:48:04.111Z,12.57
2022-10-22T14:49:37.198Z,12.77
2022-10-22T14:51:13.862Z,12.87
2022-10-22T14:52:46.978Z,12.43
2022-10-22T14:54:21.445Z,13.17
2022-10-22T14:55:57.657Z,16.60
2022-10-22T14:57:30.750Z,15.33
2022-10-22T14:59:03.822Z,15.47
2022-10-22T15:00:37.240Z,18.87
2022-10-22T15:02:13.301Z,15.60
2022-10-22T15:03:46.452Z,15.63
2022-10-22T15:05:19.809Z,13.47
2022-10-22T15:06:56.302Z,16.50
2022-10-22T15:08:29.788Z,15.40
2022-10-22T15:10:05.651Z,15.33
2022-10-22T15:11:38.742Z,13.93
2022-10-22T15:13:11.916Z,15.07
2022-10-22T15:14:45.057Z,16.07
2022-10-22T15:16:18.330Z,19.67
2022-10-22T15:17:51.438Z,16.27
2022-10-22T15:19:24.531Z,15.83
2022-10-22T15:20:59.232Z,16.37
2022-10-22T15:22:35.399Z,17.60
2022-10-22T15:24:08.693Z,15.90
2022-10-22T15:25:46.130Z,17.87
2022-10-22T15:27:19.241Z,32.03
2022-10-22T15:28:52.314Z,33.17
2022-10-22T15:30:24.357Z,30.43
2022-10-22T15:31:59.275Z,20.43
2022-10-22T15:33:32.348Z,19.27
2022-10-22T15:35:06.369Z,18.47
2022-10-22T15:36:39.447Z,18.50
2022-10-22T15:38:12.558Z,19.00
2022-10-22T15:39:45.626Z,19.93
2022-10-22T15:41:20.104Z,19.47
2022-10-22T15:42:55.474Z,20.03
2022-10-22T15:44:31.838Z,22.63
2022-10-22T15:46:12.457Z,21.97
2022-10-22T15:47:47.697Z,20.57
2022-10-22T15:49:21.521Z,23.60
2022-10-22T15:50:54.804Z,25.07
2022-10-22T15:52:27.880Z,23.27
2022-10-22T15:54:01.092Z,24.07
2022-10-22T15:55:34.158Z,25.50
2022-10-22T15:57:10.699Z,26.03
2022-10-22T15:58:43.775Z,26.00
2022-10-22T16:00:17.367Z,23.30
2022-10-22T16:01:50.458Z,21.93
2022-10-22T16:03:23.643Z,22.83
2022-10-22T16:04:56.773Z,21.87
2022-10-22T16:06:32.822Z,25.93
2022-10-22T16:08:06.207Z,25.77
2022-10-22T16:09:39.364Z,25.83
2022-10-22T16:11:12.457Z,26.03
2022-10-22T16:12:46.858Z,24.53
2022-10-22T16:14:21.732Z,28.13
2022-10-22T16:15:55.088Z,26.80
2022-10-22T16:17:28.213Z,21.57
2022-10-22T16:19:01.538Z,23.10
2022-10-22T16:20:39.278Z,25.70
2022-10-22T16:22:13.801Z,26.43
2022-10-22T16:23:46.978Z,29.07
2022-10-22T16:25:20.009Z,29.40
2022-10-22T16:26:53.865Z,32.40
2022-10-22T16:28:28.418Z,35.47
2022-10-22T16:30:01.480Z,32.53
2022-10-22T16:31:34.550Z,34.57
2022-10-22T16:33:08.957Z,37.33
2022-10-22T16:34:42.180Z,34.57
2022-10-22T16:36:17.868Z,32.57
2022-10-22T16:37:50.897Z,31.87
2022-10-22T16:39:24.590Z,36.87
2022-10-22T16:41:08.587Z,32.07
2022-10-22T16:42:42.024Z,37.27
2022-10-22T16:44:16.735Z,35.23
2022-10-22T16:45:50.193Z,53.23
2022-10-22T16:47:23.223Z,43.13
2022-10-22T16:48:56.363Z,42.50
2022-10-22T16:50:29.487Z,36.87
2022-10-22T16:52:02.564Z,38.13
2022-10-22T16:53:35.822Z,33.87
2022-10-22T16:55:09.690Z,40.87
2022-10-22T16:56:42.775Z,43.17
2022-10-22T16:58:15.801Z,44.50
2022-10-22T16:59:50.272Z,49.27
2022-10-22T17:01:25.931Z,50.03
2022-10-22T17:02:59.299Z,49.70
2022-10-22T17:04:32.334Z,56.40
2022-10-22T17:06:06.346Z,56.70
2022-10-22T17:07:39.446Z,54.83
2022-10-22T17:09:12.949Z,61.50
2022-10-22T17:10:46.028Z,59.40
2022-10-22T17:12:19.100Z,64.37
2022-10-22T17:13:54.010Z,64.90
2022-10-22T17:15:28.835Z,65.03
2022-10-22T17:17:01.877Z,67.63
2022-10-22T17:18:40.297Z,63.13
2022-10-22T17:20:13.372Z,66.07
2022-10-22T17:21:46.486Z,66.73
2022-10-22T17:23:19.537Z,63.17
2022-10-22T17:25:16.325Z,63.37
2022-10-22T17:26:50.580Z,63.03
2022-10-22T17:28:23.651Z,59.20
2022-10-22T17:29:56.712Z,56.63
2022-10-22T17:31:33.107Z,63.37
2022-10-22T17:33:06.555Z,52.80
2022-10-22T17:34:40.443Z,57.13
2022-10-22T17:36:14.221Z,54.30
2022-10-22T17:37:47.605Z,49.37
2022-10-22T17:39:20.673Z,46.53
2022-10-22T17:40:53.893Z,59.63
2022-10-22T17:42:26.992Z,53.00
2022-10-22T17:44:02.419Z,58.40
2022-10-22T17:45:36.329Z,62.37
2022-10-22T17:47:10.781Z,56.50
2022-10-22T17:48:43.875Z,60.93
2022-10-22T17:50:17.031Z,61.23
2022-10-22T17:51:50.196Z,54.57
2022-10-22T17:53:23.310Z,56.37
2022-10-22T17:54:56.348Z,57.83
2022-10-22T17:56:30.961Z,61.23
2022-10-22T17:58:04.099Z,69.60
2022-10-22T17:59:37.578Z,71.63
2022-10-22T18:01:22.078Z,63.70
2022-10-22T18:02:56.558Z,67.07
2022-10-22T18:04:31.049Z,67.33
2022-10-22T18:06:08.641Z,67.63
2022-10-22T18:07:41.656Z,61.67
2022-10-22T18:09:18.555Z,55.67
2022-10-22T18:10:52.270Z,52.70
2022-10-22T18:12:25.346Z,45.63
2022-10-22T18:13:58.695Z,48.10
2022-10-22T18:15:33.432Z,43.23
2022-10-22T18:17:06.563Z,54.00
2022-10-22T18:18:41.228Z,48.30
2022-10-22T18:20:14.397Z,43.93
2022-10-22T18:21:47.755Z,53.13
2022-10-22T18:23:21.399Z,47.83
2022-10-22T18:24:54.470Z,50.70
2022-10-22T18:26:27.595Z,48.43
2022-10-22T18:28:00.651Z,50.30
2022-10-22T18:29:33.702Z,46.83
2022-10-22T18:31:07.930Z,46.57
2022-10-22T18:32:41.080Z,42.27
2022-10-22T18:34:17.644Z,41.43
2022-10-22T18:35:53.620Z,45.77
2022-10-22T18:37:26.816Z,41.83
2022-10-22T18:39:01.605Z,52.67
2022-10-22T18:40:35.971Z,48.27
2022-10-22T18:42:09.106Z,56.07
2022-10-22T18:43:41.184Z,53.07
2022-10-22T18:45:14.244Z,55.40
2022-10-22T18:46:47.312Z,55.70
2022-10-22T18:48:22.886Z,55.83
2022-10-22T18:49:57.321Z,56.63
2022-10-22T18:51:31.779Z,50.70
2022-10-22T18:53:05.005Z,53.10
2022-10-22T18:54:38.137Z,49.50
2022-10-22T18:56:12.760Z,47.23
2022-10-22T18:57:45.838Z,62.53
2022-10-22T18:59:20.527Z,69.73
2022-10-22T19:00:53.683Z,65.13
2022-10-22T19:02:26.833Z,61.47
2022-10-22T19:03:59.857Z,66.93
2022-10-22T19:05:35.086Z,66.70
2022-10-22T19:08:42.078Z,75.70
2022-10-22T19:10:15.190Z,78.03
2022-10-22T19:11:48.594Z,79.63
2022-10-22T19:13:23.334Z,59.30
2022-10-22T19:14:56.871Z,48.60
2022-10-22T19:16:30.077Z,53.70
2022-10-22T19:18:03.158Z,51.93
2022-10-22T19:19:36.399Z,62.80
2022-10-22T19:21:12.386Z,69.17
2022-10-22T19:22:45.474Z,78.73
2022-10-22T19:24:20.425Z,64.63
2022-10-22T19:26:01.932Z,70.00
2022-10-22T19:27:36.429Z,69.90
2022-10-22T19:29:10.970Z,67.50
2022-10-22T19:30:44.680Z,64.30
2022-10-22T19:32:19.923Z,60.93
2022-10-22T19:33:54.568Z,62.97
2022-10-22T19:35:27.669Z,55.23
2022-10-22T19:37:02.109Z,66.73
2022-10-22T19:38:35.419Z,67.93
2022-10-22T19:40:09.859Z,50.77
2022-10-22T19:41:42.934Z,68.37
2022-10-22T19:43:18.894Z,72.73
2022-10-22T19:44:52.337Z,67.07
2022-10-22T19:46:26.661Z,70.37
2022-10-22T19:47:59.700Z,66.20
2022-10-22T19:49:33.752Z,70.80
2022-10-22T19:51:09.340Z,78.03
2022-10-22T19:52:44.161Z,76.03
2022-10-22T19:54:18.778Z,67.80
2022-10-22T19:55:51.821Z,67.57
2022-10-22T19:57:24.895Z,67.67
2022-10-22T19:58:58.262Z,65.23
2022-10-22T20:00:32.099Z,60.50
2022-10-22T20:02:05.238Z,58.50
2022-10-22T20:03:39.598Z,64.40
2022-10-22T20:05:12.794Z,59.93
2022-10-22T20:06:46.125Z,54.90
2022-10-22T20:08:20.554Z,56.37
2022-10-22T20:09:53.785Z,55.43
2022-10-22T20:11:28.800Z,49.73
2022-10-22T20:13:01.880Z,48.67
2022-10-22T20:14:35.224Z,51.00
2022-10-22T20:16:08.473Z,49.87
2022-10-22T20:17:41.680Z,51.83
2022-10-22T20:19:16.995Z,50.80
2022-10-22T20:20:50.432Z,50.63
2022-10-22T20:22:23.482Z,46.73
2022-10-22T20:23:58.440Z,48.40
2022-10-22T20:25:31.506Z,51.90
2022-10-22T20:27:04.675Z,52.87
2022-10-22T20:28:38.616Z,47.93
2022-10-22T20:30:12.528Z,46.57
2022-10-22T20:31:45.785Z,52.27
2022-10-22T20:33:18.945Z,48.97
2022-10-22T20:34:51.998Z,51.40
2022-10-22T20:36:26.886Z,50.33
2022-10-22T20:37:59.905Z,48.40
2022-10-22T20:39:34.438Z,46.47
2022-10-22T20:41:10.104Z,46.80